Time;durP1;ratioP1;P1;durP2;ratioP2;P2;SDS_P1;SDS_P2;PMS_P1;PMS_P2;Temp;Humidity;BMP_temperature;BMP_pressure;BME280_temperature;BME280_humidity;BME280_pressure;Samples;Min_cycle;Max_cycle;Signal;HPM_P1;HPM_P2
2021/10/14 00:02:09;;;;;;;;;;;;;;;15.93;65.24;101271.78;5012029;28;104140;-51
2021/10/14 00:04:35;;;;;;;;;;;;;;;15.94;65.15;101278.06;5016164;28;102384;-50
2021/10/14 00:07:03;;;;;;;;;;;;;;;15.93;65.59;101277.28;5015740;28;102160;-50
2021/10/14 00:09:29;;;;;;;;;;;;;;;15.93;65.30;101266.28;5014441;28;102225;-51
2021/10/14 00:11:57;;;;;;;;;;;;;;;15.93;65.49;101271.78;5012101;28;104067;-50
2021/10/14 00:14:24;;;;;;;;;;;;;;;15.93;65.05;101282.75;5014298;28;102199;-51
2021/10/14 00:16:52;;;;;;;;;;;;;;;15.93;65.07;101276.47;5015705;28;102431;-51
2021/10/14 00:19:18;;;;;;;;;;;;;;;15.94;65.49;101289.06;5013311;28;102349;-51
2021/10/14 00:21:44;;;;;;;;;;;;;;;15.93;65.34;101280.00;4999975;28;103854;-50
2021/10/14 00:24:10;;;;;;;;;;;;;;;15.93;65.06;101285.50;5014223;28;102361;-51
2021/10/14 00:26:37;;;;;;;;;;;;;;;15.93;65.73;101292.94;5002254;28;102260;-51
2021/10/14 00:29:04;;;;;;;;;;;;;;;15.93;65.03;101287.44;5009022;28;102248;-51
2021/10/14 00:31:31;;;;;;;;;;;;;;;15.92;65.04;101303.09;5012228;28;103699;-51
2021/10/14 00:33:57;;;;;;;;;;;;;;;15.91;65.35;101295.97;5013543;28;102421;-51
2021/10/14 00:36:23;;;;;;;;;;;;;;;15.92;65.32;101297.59;5012627;28;102358;-50
2021/10/14 00:38:49;;;;;;;;;;;;;;;15.92;65.59;101303.09;5013308;28;102569;-51
2021/10/14 00:41:15;;;;;;;;;;;;;;;15.92;65.12;101319.56;5014234;28;103844;-51
2021/10/14 00:43:42;;;;;;;;;;;;;;;15.92;65.14;101325.06;5014215;28;102635;-50
2021/10/14 00:46:14;;;;;;;;;;;;;;;15.92;65.56;101330.53;5006359;28;102463;-50
2021/10/14 00:48:40;;;;;;;;;;;;;;;15.92;65.60;101335.22;5011307;28;102207;-50
2021/10/14 00:51:07;;;;;;;;;;;;;;;15.92;65.30;101341.53;5014455;28;104109;-51
2021/10/14 00:53:36;;;;;;;;;;;;;;;15.92;65.14;101347.00;5014348;28;102360;-51
2021/10/14 00:56:03;;;;;;;;;;;;;;;15.91;65.64;101356.38;5010672;28;103615;-51
2021/10/14 00:58:31;;;;;;;;;;;;;;;15.92;65.26;101352.50;5010245;28;102399;-51
2021/10/14 01:00:57;;;;;;;;;;;;;;;15.91;65.62;101353.63;5010786;28;103940;-50
2021/10/14 01:03:25;;;;;;;;;;;;;;;15.92;65.48;101355.25;5008826;28;102242;-51
2021/10/14 01:05:51;;;;;;;;;;;;;;;15.92;65.11;101351.69;5014458;28;104011;-51
2021/10/14 01:08:17;;;;;;;;;;;;;;;15.92;65.24;101360.72;5010847;28;102245;-51
2021/10/14 01:10:44;;;;;;;;;;;;;;;15.91;65.13;101361.84;5006822;28;103923;-50
2021/10/14 01:13:12;;;;;;;;;;;;;;;15.90;65.63;101368.44;5009423;28;102380;-50
2021/10/14 01:15:38;;;;;;;;;;;;;;;15.91;65.53;101372.84;5012830;28;102153;-50
2021/10/14 01:18:04;;;;;;;;;;;;;;;15.90;65.34;101370.34;5008496;28;102735;-51
2021/10/14 01:20:31;;;;;;;;;;;;;;;15.90;65.29;101387.66;5004237;28;103920;-50
2021/10/14 01:22:57;;;;;;;;;;;;;;;15.91;65.04;101383.81;5013176;28;102623;-51
2021/10/14 01:25:24;;;;;;;;;;;;;;;15.90;65.09;101393.13;5012263;28;102155;-50
2021/10/14 01:27:52;;;;;;;;;;;;;;;15.89;65.63;101391.50;5014301;28;102395;-51
2021/10/14 01:30:18;;;;;;;;;;;;;;;15.90;65.38;101393.13;5013923;28;103897;-50
2021/10/14 01:32:46;;;;;;;;;;;;;;;15.91;65.15;101396.72;5012345;28;102420;-51
2021/10/14 01:35:12;;;;;;;;;;;;;;;15.90;65.29;101398.63;5013756;28;102673;-50
2021/10/14 01:37:41;;;;;;;;;;;;;;;15.89;64.99;101397.00;5011057;28;102266;-51
2021/10/14 01:40:08;;;;;;;;;;;;;;;15.90;65.36;101398.63;5014098;28;103932;-50
2021/10/14 01:42:34;;;;;;;;;;;;;;;15.89;65.06;101391.50;5013575;28;102244;-51
2021/10/14 01:45:01;;;;;;;;;;;;;;;15.89;65.71;101386.03;5014100;28;102162;-51
2021/10/14 01:47:27;;;;;;;;;;;;;;;15.89;65.53;101397.00;5014534;28;102263;-51
2021/10/14 01:49:53;;;;;;;;;;;;;;;15.90;65.19;101403.31;5009667;28;103964;-51
2021/10/14 01:52:20;;;;;;;;;;;;;;;15.90;65.28;101403.31;5005936;28;102387;-51
2021/10/14 01:54:47;;;;;;;;;;;;;;;15.89;65.38;101401.69;5010812;28;102266;-56
2021/10/14 01:57:13;;;;;;;;;;;;;;;15.89;65.24;101416.22;5015541;28;102175;-51
2021/10/14 01:59:40;;;;;;;;;;;;;;;15.89;65.58;101410.72;5016778;28;103693;-50
2021/10/14 02:02:06;;;;;;;;;;;;;;;15.89;65.13;101431.88;5017026;28;104718;-50
2021/10/14 02:04:33;;;;;;;;;;;;;;;15.90;65.44;101441.72;5016305;28;102347;-51
2021/10/14 02:06:59;;;;;;;;;;;;;;;15.89;65.17;101446.41;5017766;28;102132;-51
2021/10/14 02:09:25;;;;;;;;;;;;;;;15.90;65.18;101458.19;5013717;28;103733;-50
2021/10/14 02:11:53;;;;;;;;;;;;;;;15.90;65.54;101464.50;5014404;28;102237;-50
2021/10/14 02:14:19;;;;;;;;;;;;;;;15.89;65.53;101456.56;5015977;28;102408;-51
2021/10/14 02:16:46;;;;;;;;;;;;;;;15.89;65.22;101457.38;5017973;28;103381;-51
2021/10/14 02:19:12;;;;;;;;;;;;;;;15.89;65.57;101462.88;5012721;28;103327;-51
2021/10/14 02:21:38;;;;;;;;;;;;;;;15.89;65.61;101464.81;5016039;28;102743;-51
2021/10/14 02:24:04;;;;;;;;;;;;;;;15.89;65.56;101467.56;5013873;28;102565;-50
2021/10/14 02:26:31;;;;;;;;;;;;;;;15.89;65.26;101478.53;5016685;28;102077;-50
2021/10/14 02:28:58;;;;;;;;;;;;;;;15.88;65.11;101483.22;5015409;28;103865;-50
2021/10/14 02:31:24;;;;;;;;;;;;;;;15.89;65.21;101486.75;5014255;28;102319;-50
2021/10/14 02:33:51;;;;;;;;;;;;;;;15.89;65.25;101484.03;5012481;28;103616;-51
2021/10/14 02:36:17;;;;;;;;;;;;;;;15.89;65.08;101489.50;5020983;28;102169;-51
2021/10/14 02:38:43;;;;;;;;;;;;;;;15.90;65.51;101485.66;5020172;28;104742;-51
2021/10/14 02:41:09;;;;;;;;;;;;;;;15.89;65.39;101489.50;5020454;28;102696;-51
2021/10/14 02:43:36;;;;;;;;;;;;;;;15.88;65.55;101491.44;5018316;28;102567;-51
2021/10/14 02:46:03;;;;;;;;;;;;;;;15.89;65.34;101500.50;5006685;28;102184;-50
2021/10/14 02:48:29;;;;;;;;;;;;;;;15.88;65.53;101498.88;5017063;28;107573;-51
2021/10/14 02:50:55;;;;;;;;;;;;;;;15.88;65.34;101499.69;5014078;28;102282;-51
2021/10/14 02:53:23;;;;;;;;;;;;;;;15.88;65.61;101493.38;5008144;28;104119;-51
2021/10/14 02:55:49;;;;;;;;;;;;;;;15.88;65.89;101501.59;5003201;28;102517;-52
2021/10/14 02:58:15;;;;;;;;;;;;;;;15.88;65.42;101505.16;5010541;28;105576;-51
2021/10/14 03:00:41;;;;;;;;;;;;;;;15.86;65.72;101491.72;5009838;28;102193;-58
2021/10/14 03:03:09;;;;;;;;;;;;;;;15.88;65.18;101505.16;5016159;28;102320;-51
2021/10/14 03:05:35;;;;;;;;;;;;;;;15.86;65.28;101501.88;5017646;28;102115;-51
2021/10/14 03:08:01;;;;;;;;;;;;;;;15.87;65.56;101509.03;5007771;28;104197;-51
2021/10/14 03:10:27;;;;;;;;;;;;;;;15.88;65.16;101515.34;5009182;28;102231;-51
2021/10/14 03:12:53;;;;;;;;;;;;;;;15.86;65.09;101512.84;5014693;28;102487;-51
2021/10/14 03:15:22;;;;;;;;;;;;;;;15.87;65.58;101520.00;5013849;28;102501;-51
2021/10/14 03:17:48;;;;;;;;;;;;;;;15.87;65.11;101517.25;5014625;28;104034;-51
2021/10/14 03:20:17;;;;;;;;;;;;;;;15.86;65.16;101502.69;5014979;28;102249;-51
2021/10/14 03:22:43;;;;;;;;;;;;;;;15.87;65.11;101514.50;5014232;28;102458;-51
2021/10/14 03:25:09;;;;;;;;;;;;;;;15.86;65.15;101518.34;5013419;28;102441;-50
2021/10/14 03:27:36;;;;;;;;;;;;;;;15.86;65.59;101529.31;5008841;28;103480;-51
2021/10/14 03:30:03;;;;;;;;;;;;;;;15.86;65.51;101538.38;5016273;28;102154;-51
2021/10/14 03:32:30;;;;;;;;;;;;;;;15.86;65.36;101537.56;5017220;28;101850;-51
2021/10/14 03:34:56;;;;;;;;;;;;;;;15.86;65.47;101541.13;5015044;28;102606;-50
2021/10/14 03:37:23;;;;;;;;;;;;;;;15.86;65.69;101543.84;5014326;28;103772;-51
2021/10/14 03:39:50;;;;;;;;;;;;;;;15.86;65.54;101532.06;5016003;28;102226;-50
2021/10/14 03:42:17;;;;;;;;;;;;;;;15.86;65.11;101540.31;5012479;28;102254;-51
2021/10/14 03:44:43;;;;;;;;;;;;;;;15.85;65.34;101539.50;5015363;28;102874;-50
2021/10/14 03:47:09;;;;;;;;;;;;;;;15.86;65.43;101545.78;5002676;28;103910;-51
2021/10/14 03:49:35;;;;;;;;;;;;;;;15.86;65.77;101557.59;5002654;28;102169;-51
2021/10/14 03:52:02;;;;;;;;;;;;;;;15.85;65.67;101558.69;5012196;28;102520;-50
2021/10/14 03:54:30;;;;;;;;;;;;;;;15.86;65.33;101556.78;5012955;28;105433;-51
2021/10/14 03:56:57;;;;;;;;;;;;;;;15.85;65.14;101557.88;5007870;28;104102;-51
2021/10/14 03:59:24;;;;;;;;;;;;;;;15.86;65.10;101556.78;5008554;28;102174;-51
2021/10/14 04:01:50;;;;;;;;;;;;;;;15.85;65.29;101564.19;5007657;28;102256;-50
2021/10/14 04:04:16;;;;;;;;;;;;;;;15.84;65.51;101570.78;5008415;28;102675;-51
2021/10/14 04:06:42;;;;;;;;;;;;;;;15.85;65.61;101568.88;5012954;28;104075;-51
2021/10/14 04:09:08;;;;;;;;;;;;;;;15.84;65.41;101572.72;5007360;28;103444;-51
2021/10/14 04:11:36;;;;;;;;;;;;;;;15.85;65.07;101579.84;5013013;28;102033;-50
2021/10/14 04:14:02;;;;;;;;;;;;;;;15.84;64.83;101575.47;5006007;28;102244;-51
2021/10/14 04:16:30;;;;;;;;;;;;;;;15.85;65.18;101577.09;5014239;28;103933;-51
2021/10/14 04:18:56;;;;;;;;;;;;;;;15.84;65.13;101580.97;5014602;28;102193;-50
2021/10/14 04:21:22;;;;;;;;;;;;;;;15.84;65.21;101583.69;4998618;28;102166;-51
2021/10/14 04:23:48;;;;;;;;;;;;;;;15.84;65.29;101583.69;5013233;28;102361;-51
2021/10/14 04:26:15;;;;;;;;;;;;;;;15.84;65.28;101587.25;5015112;28;103901;-51
2021/10/14 04:28:42;;;;;;;;;;;;;;;15.84;65.49;101583.69;5014361;28;102393;-51
2021/10/14 04:31:09;;;;;;;;;;;;;;;15.83;65.16;101582.88;5006671;28;102216;-51
2021/10/14 04:33:35;;;;;;;;;;;;;;;15.84;65.46;101594.69;5009127;28;102251;-50
2021/10/14 04:36:02;;;;;;;;;;;;;;;15.83;65.14;101587.53;5012940;28;104118;-51
2021/10/14 04:38:28;;;;;;;;;;;;;;;15.83;65.19;101593.03;5014475;28;102228;-51
2021/10/14 04:40:55;;;;;;;;;;;;;;;15.83;65.64;101590.28;4996746;28;102036;-51
2021/10/14 04:43:23;;;;;;;;;;;;;;;15.83;65.14;101587.53;5015727;28;102235;-51
2021/10/14 04:45:51;;;;;;;;;;;;;;;15.83;65.19;101601.25;5015357;28;103870;-51
2021/10/14 04:48:17;;;;;;;;;;;;;;;15.83;65.50;101590.28;5010578;28;102133;-51
2021/10/14 04:50:43;;;;;;;;;;;;;;;15.84;65.23;101597.44;5013000;28;102394;-50
2021/10/14 04:53:09;;;;;;;;;;;;;;;15.83;65.33;101602.09;5014814;28;102758;-51
2021/10/14 04:55:35;;;;;;;;;;;;;;;15.82;65.69;101605.13;5013243;28;103616;-51
2021/10/14 04:58:02;;;;;;;;;;;;;;;15.83;65.71;101607.59;5013145;28;102182;-51
2021/10/14 05:00:28;;;;;;;;;;;;;;;15.82;65.60;101610.59;5009743;28;104012;-51
2021/10/14 05:02:55;;;;;;;;;;;;;;;15.82;65.33;101607.84;5015228;28;102272;-50
2021/10/14 05:05:22;;;;;;;;;;;;;;;15.82;65.60;101619.66;5009981;28;103849;-51
2021/10/14 05:07:48;;;;;;;;;;;;;;;15.83;65.81;101623.22;5013270;28;102188;-51
2021/10/14 05:10:14;;;;;;;;;;;;;;;15.82;65.61;101621.59;5010415;28;102333;-50
2021/10/14 05:12:48;;;;;;;;;;;;;;;15.83;65.33;101628.69;5014705;28;102293;-51
2021/10/14 05:15:14;;;;;;;;;;;;;;;15.83;65.43;101640.53;5011348;28;103903;-51
2021/10/14 05:17:42;;;;;;;;;;;;;;;15.84;65.35;101641.34;5010068;28;102392;-50
2021/10/14 05:20:10;;;;;;;;;;;;;;;15.84;65.36;101642.16;5008816;28;102076;-50
2021/10/14 05:22:36;;;;;;;;;;;;;;;15.85;65.45;101642.97;5007166;28;102354;-50
2021/10/14 05:25:03;;;;;;;;;;;;;;;15.86;65.36;101644.59;5012170;28;103872;-51
2021/10/14 05:27:29;;;;;;;;;;;;;;;15.86;65.90;101650.09;5011973;28;103180;-51
2021/10/14 05:29:55;;;;;;;;;;;;;;;15.86;65.80;101650.09;5010415;28;102400;-51
2021/10/14 05:32:21;;;;;;;;;;;;;;;15.86;65.82;101658.34;5013859;28;102312;-51
2021/10/14 05:34:47;;;;;;;;;;;;;;;15.85;65.81;101667.69;5009846;28;103850;-51
2021/10/14 05:37:15;;;;;;;;;;;;;;;15.86;65.94;101667.38;5007453;28;102625;-51
2021/10/14 05:39:42;;;;;;;;;;;;;;;15.86;65.49;101672.06;5007901;28;102055;-50
2021/10/14 05:42:08;;;;;;;;;;;;;;;15.84;65.53;101677.84;5016012;28;102228;-51
2021/10/14 05:44:34;;;;;;;;;;;;;;;15.86;65.91;101683.03;5013983;28;103786;-51
2021/10/14 05:47:00;;;;;;;;;;;;;;;15.85;65.68;101686.91;5006786;28;102270;-50
2021/10/14 05:49:26;;;;;;;;;;;;;;;15.85;65.95;101682.22;5006165;28;102354;-51
2021/10/14 05:51:53;;;;;;;;;;;;;;;15.85;65.49;101692.38;5006563;28;102998;-50
2021/10/14 05:54:20;;;;;;;;;;;;;;;15.85;65.43;101704.19;5011927;28;103706;-51
2021/10/14 05:56:46;;;;;;;;;;;;;;;15.85;65.45;101708.84;5014633;28;102250;-51
2021/10/14 05:59:12;;;;;;;;;;;;;;;15.85;66.03;101708.84;5010363;28;102213;-51
2021/10/14 06:01:39;;;;;;;;;;;;;;;15.85;65.47;101719.84;5013855;28;102207;-51
2021/10/14 06:04:05;;;;;;;;;;;;;;;15.85;65.70;101734.38;5013730;28;103880;-51
2021/10/14 06:06:32;;;;;;;;;;;;;;;15.85;65.47;101730.81;5015779;28;102017;-51
2021/10/14 06:08:58;;;;;;;;;;;;;;;15.86;65.94;101732.44;5012775;28;102512;-51
2021/10/14 06:11:26;;;;;;;;;;;;;;;15.85;66.01;101730.81;5011800;28;102594;-50
2021/10/14 06:13:52;;;;;;;;;;;;;;;15.85;66.01;101726.13;5009199;28;103986;-51
2021/10/14 06:16:18;;;;;;;;;;;;;;;15.86;65.63;101737.94;5015009;28;102383;-51
2021/10/14 06:18:44;;;;;;;;;;;;;;;15.85;66.04;101736.31;5012464;28;102627;-51
2021/10/14 06:21:10;;;;;;;;;;;;;;;15.85;66.04;101741.78;5013237;28;102655;-51
2021/10/14 06:23:37;;;;;;;;;;;;;;;15.85;65.56;101745.34;5012741;28;107765;-52
2021/10/14 06:26:03;;;;;;;;;;;;;;;15.85;65.89;101753.59;5014128;28;102232;-51
2021/10/14 06:28:32;;;;;;;;;;;;;;;15.85;66.02;101758.25;5012188;28;101988;-51
2021/10/14 06:30:59;;;;;;;;;;;;;;;15.85;65.80;101755.50;5009794;28;102576;-51
2021/10/14 06:33:26;;;;;;;;;;;;;;;15.86;66.05;101762.63;5013500;28;103957;-51
2021/10/14 06:35:52;;;;;;;;;;;;;;;15.86;65.94;101762.63;5010500;28;102321;-51
2021/10/14 06:38:18;;;;;;;;;;;;;;;15.85;65.65;101758.25;5005943;28;102573;-50
2021/10/14 06:40:45;;;;;;;;;;;;;;;15.86;66.04;101765.38;5002808;28;102493;-51
2021/10/14 06:43:11;;;;;;;;;;;;;;;15.86;65.55;101776.38;5012520;28;103944;-51
2021/10/14 06:45:38;;;;;;;;;;;;;;;15.86;65.75;101776.38;5015364;28;102211;-51
2021/10/14 06:48:05;;;;;;;;;;;;;;;15.87;65.72;101778.03;5012364;28;102287;-51
2021/10/14 06:50:32;;;;;;;;;;;;;;;15.86;66.02;101779.94;5017247;28;102286;-51
2021/10/14 06:52:58;;;;;;;;;;;;;;;15.86;65.70;101782.66;5013349;28;104020;-51
2021/10/14 06:55:24;;;;;;;;;;;;;;;15.87;65.57;101783.53;5015111;28;103406;-51
2021/10/14 06:57:50;;;;;;;;;;;;;;;15.86;65.99;101795.56;5010352;28;102429;-50
2021/10/14 07:00:22;;;;;;;;;;;;;;;15.87;65.57;101800.00;5013679;28;102665;-51
2021/10/14 07:02:50;;;;;;;;;;;;;;;15.87;65.56;101789.00;5008134;28;103914;-51
2021/10/14 07:05:16;;;;;;;;;;;;;;;15.88;65.58;101795.31;5012287;28;102236;-50
2021/10/14 07:07:44;;;;;;;;;;;;;;;15.88;65.96;101795.31;5015439;28;102227;-51
2021/10/14 07:10:11;;;;;;;;;;;;;;;15.88;65.88;101793.38;5021853;28;102493;-51
2021/10/14 07:12:39;;;;;;;;;;;;;;;15.88;65.81;101787.91;5019576;28;104066;-51
2021/10/14 07:15:06;;;;;;;;;;;;;;;15.88;65.91;101793.38;5019353;28;102144;-51
2021/10/14 07:17:33;;;;;;;;;;;;;;;15.89;65.99;101795.03;5017017;28;103948;-51
2021/10/14 07:20:01;;;;;;;;;;;;;;;15.88;65.67;101796.13;5012613;28;102180;-51
2021/10/14 07:22:27;;;;;;;;;;;;;;;15.89;65.67;101797.78;5011551;28;103889;-51
2021/10/14 07:24:53;;;;;;;;;;;;;;;15.90;65.89;101798.59;5014074;28;102180;-51
2021/10/14 07:27:19;;;;;;;;;;;;;;;15.90;65.70;101796.66;5011621;28;102561;-51
2021/10/14 07:29:45;;;;;;;;;;;;;;;15.90;65.99;101799.41;5013468;28;102486;-51
2021/10/14 07:32:12;;;;;;;;;;;;;;;15.92;66.18;101810.13;5016144;28;103883;-51
2021/10/14 07:34:38;;;;;;;;;;;;;;;15.91;65.84;101806.56;5004715;28;102240;-51
2021/10/14 07:37:06;;;;;;;;;;;;;;;15.91;66.33;101801.06;5015843;28;102398;-51
2021/10/14 07:39:33;;;;;;;;;;;;;;;15.92;65.70;101808.19;5011276;28;103520;-51
2021/10/14 07:41:59;;;;;;;;;;;;;;;15.92;65.78;101802.69;5009313;28;103880;-51
2021/10/14 07:44:26;;;;;;;;;;;;;;;15.92;66.11;101797.22;5015347;28;102450;-51
2021/10/14 07:46:52;;;;;;;;;;;;;;;15.93;65.60;101798.84;5014077;28;102393;-50
2021/10/14 07:49:19;;;;;;;;;;;;;;;15.93;65.51;101796.09;5014428;28;102613;-50
2021/10/14 07:51:46;;;;;;;;;;;;;;;15.94;66.17;101797.75;5010554;28;104595;-50
2021/10/14 07:54:13;;;;;;;;;;;;;;;15.95;65.75;101809.56;5012723;28;103053;-51
2021/10/14 07:56:39;;;;;;;;;;;;;;;15.94;65.53;101802.41;5011743;28;102604;-51
2021/10/14 07:59:06;;;;;;;;;;;;;;;15.95;66.17;101815.06;5006361;28;102274;-51
2021/10/14 08:01:32;;;;;;;;;;;;;;;15.95;65.91;101826.84;5014807;28;103891;-51
2021/10/14 08:03:59;;;;;;;;;;;;;;;15.96;66.19;101835.91;5014033;28;102628;-51
2021/10/14 08:06:25;;;;;;;;;;;;;;;15.97;65.82;101846.59;5015086;28;102291;-51
2021/10/14 08:08:51;;;;;;;;;;;;;;;15.97;66.50;101854.84;5015175;28;102128;-51
2021/10/14 08:11:18;;;;;;;;;;;;;;;15.97;65.77;101857.56;5014663;28;103698;-51
2021/10/14 08:13:44;;;;;;;;;;;;;;;15.98;66.25;101855.69;5010185;28;102265;-51
2021/10/14 08:16:11;;;;;;;;;;;;;;;15.99;65.81;101857.31;5005832;28;103901;-50
2021/10/14 08:18:37;;;;;;;;;;;;;;;16.00;66.19;101865.25;5014492;28;102847;-51
2021/10/14 08:21:03;;;;;;;;;;;;;;;16.01;66.25;101863.34;5014300;28;103885;-50
2021/10/14 08:23:30;;;;;;;;;;;;;;;16.02;65.82;101867.75;5002252;28;102513;-51
2021/10/14 08:25:56;;;;;;;;;;;;;;;16.03;65.86;101875.69;5011608;28;105005;-55
2021/10/14 08:28:24;;;;;;;;;;;;;;;16.04;66.26;101882.81;5010618;28;102385;-51
2021/10/14 08:30:50;;;;;;;;;;;;;;;16.06;66.30;101882.56;5015463;28;103887;-50
2021/10/14 08:33:17;;;;;;;;;;;;;;;16.05;66.03;101878.16;5011186;28;102357;-51
2021/10/14 08:35:43;;;;;;;;;;;;;;;16.07;66.15;101879.50;5014513;28;102419;-51
2021/10/14 08:38:10;;;;;;;;;;;;;;;16.09;65.87;101868.28;5011646;28;103220;-50
2021/10/14 08:40:37;;;;;;;;;;;;;;;16.08;65.73;101867.44;5013802;28;103886;-51
2021/10/14 08:43:05;;;;;;;;;;;;;;;16.10;65.74;101875.41;5012650;28;103518;-50
2021/10/14 08:45:34;;;;;;;;;;;;;;;16.12;66.02;101880.59;5006757;28;102179;-51
2021/10/14 08:48:02;;;;;;;;;;;;;;;16.10;65.76;101864.41;5011703;28;102536;-50
2021/10/14 08:50:28;;;;;;;;;;;;;;;16.12;66.08;101869.59;5009332;28;104020;-51
2021/10/14 08:52:54;;;;;;;;;;;;;;;16.12;65.98;101872.34;5012741;28;102343;-51
2021/10/14 08:55:20;;;;;;;;;;;;;;;16.12;66.11;101877.84;5015370;28;102603;-51
2021/10/14 08:57:47;;;;;;;;;;;;;;;16.12;66.14;101875.94;5017304;28;102184;-52
2021/10/14 09:00:13;;;;;;;;;;;;;;;16.12;66.08;101881.44;5002657;28;103893;-51
2021/10/14 09:02:44;;;;;;;;;;;;;;;16.12;65.77;101878.69;5015010;28;102301;-51
2021/10/14 09:05:13;;;;;;;;;;;;;;;16.13;65.72;101877.59;5013973;28;102278;-51
2021/10/14 09:07:40;;;;;;;;;;;;;;;16.13;66.15;101874.03;5015126;28;102218;-51
2021/10/14 09:10:12;;;;;;;;;;;;;;;16.13;65.65;101879.50;5012956;28;103761;-51
2021/10/14 09:12:39;;;;;;;;;;;;;;;16.14;65.70;101870.16;5010259;28;102212;-51
2021/10/14 09:15:07;;;;;;;;;;;;;;;16.13;65.62;101863.03;5009964;28;102227;-50
2021/10/14 09:17:46;;;;;;;;;;;;;;;16.14;66.17;101861.94;5014997;28;102204;-50
2021/10/14 09:20:29;;;;;;;;;;;;;;;16.14;65.95;101861.94;5012435;28;107955;-51
2021/10/14 09:22:56;;;;;;;;;;;;;;;16.14;66.17;101859.19;5006914;28;102642;-51
2021/10/14 09:25:29;;;;;;;;;;;;;;;16.13;66.16;101852.88;5012911;28;102194;-51
2021/10/14 09:28:07;;;;;;;;;;;;;;;16.13;65.65;101843.81;5010867;28;102208;-51
2021/10/14 09:30:41;;;;;;;;;;;;;;;16.13;66.15;101855.63;5010325;28;103855;-51
2021/10/14 09:33:09;;;;;;;;;;;;;;;16.13;65.84;101852.06;5015791;28;102147;-51
2021/10/14 09:35:35;;;;;;;;;;;;;;;16.14;65.53;101859.19;5013509;28;102138;-51
2021/10/14 09:38:01;;;;;;;;;;;;;;;16.13;65.61;101857.53;5016209;28;102172;-52
2021/10/14 09:40:28;;;;;;;;;;;;;;;16.13;66.04;101861.09;5013031;28;104022;-50
2021/10/14 09:42:59;;;;;;;;;;;;;;;16.13;65.96;101865.78;5005834;28;102191;-50
2021/10/14 09:45:26;;;;;;;;;;;;;;;16.13;66.06;101865.78;5012573;28;102640;-51
2021/10/14 09:48:08;;;;;;;;;;;;;;;16.12;66.01;101867.72;5008288;28;102373;-50
2021/10/14 09:50:36;;;;;;;;;;;;;;;16.12;66.00;101862.22;5004215;28;103656;-51
2021/10/14 09:53:04;;;;;;;;;;;;;;;16.12;65.60;101866.88;5004257;28;102372;-51
2021/10/14 09:55:31;;;;;;;;;;;;;;;16.12;65.97;101872.34;5009223;28;102264;-51
2021/10/14 09:57:59;;;;;;;;;;;;;;;16.12;65.76;101866.88;5014839;28;102210;-51
2021/10/14 10:00:27;;;;;;;;;;;;;;;16.12;66.04;101858.63;5011956;28;103843;-50
2021/10/14 10:02:54;;;;;;;;;;;;;;;16.10;65.67;101851.50;5014513;28;102491;-51
2021/10/14 10:05:21;;;;;;;;;;;;;;;16.10;65.74;101857.00;5009827;28;102827;-51
2021/10/14 10:07:50;;;;;;;;;;;;;;;16.11;65.37;101855.06;5004741;28;102682;-51
2021/10/14 10:10:18;;;;;;;;;;;;;;;16.10;66.02;101858.91;5012266;28;103871;-50
2021/10/14 10:12:45;;;;;;;;;;;;;;;16.09;65.71;101852.59;5005467;28;102578;-50
2021/10/14 10:15:12;;;;;;;;;;;;;;;16.10;65.35;101851.50;5013624;28;102203;-50
2021/10/14 10:17:40;;;;;;;;;;;;;;;16.09;65.81;101858.09;5014957;28;102192;-51
2021/10/14 10:20:08;;;;;;;;;;;;;;;16.09;65.46;101863.59;5016290;28;104024;-51
2021/10/14 10:22:49;;;;;;;;;;;;;;;16.08;65.60;101856.47;5015786;28;102214;-51
2021/10/14 10:25:16;;;;;;;;;;;;;;;16.08;65.41;101850.97;5010603;28;102070;-51
2021/10/14 10:27:43;;;;;;;;;;;;;;;16.08;65.84;101844.63;5019080;28;102791;-51
2021/10/14 10:30:09;;;;;;;;;;;;;;;16.09;65.72;101835.31;5018065;28;104051;-51
2021/10/14 10:32:41;;;;;;;;;;;;;;;16.07;65.28;101838.31;5017009;28;102121;-51
2021/10/14 10:35:08;;;;;;;;;;;;;;;16.09;65.44;101846.31;5006628;28;102047;-51
2021/10/14 10:37:46;;;;;;;;;;;;;;;16.07;65.54;101843.81;5016627;28;102262;-51
2021/10/14 10:40:16;;;;;;;;;;;;;;;16.07;65.38;101846.56;5017483;28;103486;-51
2021/10/14 10:42:45;;;;;;;;;;;;;;;16.07;65.51;101848.50;5017986;28;102203;-51
2021/10/14 10:45:12;;;;;;;;;;;;;;;16.05;65.29;101857.03;5016758;28;102132;-51
2021/10/14 10:47:41;;;;;;;;;;;;;;;16.06;65.27;101860.59;5018497;28;102319;-51
2021/10/14 10:50:08;;;;;;;;;;;;;;;16.05;65.25;101854.28;5012676;28;103713;-51
2021/10/14 10:52:35;;;;;;;;;;;;;;;16.05;65.40;101873.50;5016342;28;102226;-51
2021/10/14 10:55:11;;;;;;;;;;;;;;;16.05;65.40;101859.78;5018056;28;103718;-51
2021/10/14 10:57:46;;;;;;;;;;;;;;;16.04;65.26;101858.09;5016166;28;102083;-51
2021/10/14 11:00:12;;;;;;;;;;;;;;;16.05;65.51;101861.69;5017339;28;103904;-50
2021/10/14 11:02:39;;;;;;;;;;;;;;;16.04;65.22;101871.84;5016243;28;102303;-51
2021/10/14 11:05:05;;;;;;;;;;;;;;;16.03;65.23;101870.19;5016140;28;102405;-51
2021/10/14 11:07:31;;;;;;;;;;;;;;;16.03;65.44;101870.19;5018595;28;102403;-51
2021/10/14 11:09:59;;;;;;;;;;;;;;;16.03;65.72;101870.19;5015928;28;104037;-51
2021/10/14 11:12:26;;;;;;;;;;;;;;;16.03;65.56;101859.22;5015119;28;102265;-51
2021/10/14 11:14:53;;;;;;;;;;;;;;;16.03;65.75;101855.66;5015510;28;102199;-51
2021/10/14 11:17:19;;;;;;;;;;;;;;;16.01;65.31;101855.94;5010983;28;102550;-51
2021/10/14 11:19:45;;;;;;;;;;;;;;;16.01;65.54;101855.94;5010958;28;103969;-51
2021/10/14 11:22:13;;;;;;;;;;;;;;;16.02;65.69;101857.59;5012220;28;102294;-51
2021/10/14 11:24:42;;;;;;;;;;;;;;;16.01;65.68;101861.44;5010326;28;102652;-51
2021/10/14 11:27:12;;;;;;;;;;;;;;;16.01;65.69;101860.59;5013964;28;103308;-51
2021/10/14 11:29:38;;;;;;;;;;;;;;;16.00;65.35;101851.53;5012968;28;104257;-51
2021/10/14 11:32:09;;;;;;;;;;;;;;;16.00;65.65;101846.03;5016705;28;102493;-51
2021/10/14 11:34:37;;;;;;;;;;;;;;;16.01;65.26;101836.72;5014312;28;102402;-51
2021/10/14 11:37:05;;;;;;;;;;;;;;;16.01;65.60;101827.63;5012142;28;102670;-51
2021/10/14 11:39:33;;;;;;;;;;;;;;;16.00;65.14;101832.31;5016491;28;103998;-51
2021/10/14 11:42:00;;;;;;;;;;;;;;;16.00;65.28;101834.25;5019830;28;102187;-51
2021/10/14 11:44:27;;;;;;;;;;;;;;;16.00;65.49;101820.50;5019246;28;102123;-51
2021/10/14 11:46:54;;;;;;;;;;;;;;;15.99;65.39;101825.19;5022038;28;103576;-51
2021/10/14 11:49:22;;;;;;;;;;;;;;;15.98;65.36;101829.03;5018306;28;103683;-51
2021/10/14 11:51:50;;;;;;;;;;;;;;;15.98;65.57;101834.53;5010521;28;102161;-51
2021/10/14 11:54:19;;;;;;;;;;;;;;;15.99;65.57;101841.66;5008094;28;102643;-51
2021/10/14 11:56:46;;;;;;;;;;;;;;;15.98;65.30;101842.78;5011229;28;102785;-51
2021/10/14 11:59:13;;;;;;;;;;;;;;;15.99;65.02;101841.66;5015281;28;103878;-51
2021/10/14 12:01:48;;;;;;;;;;;;;;;15.99;65.64;101854.56;5015251;28;102654;-51
2021/10/14 12:04:15;;;;;;;;;;;;;;;15.98;65.68;101856.50;5016169;28;102180;-51
2021/10/14 12:06:44;;;;;;;;;;;;;;;15.99;65.29;101863.63;5015414;28;105648;-51
2021/10/14 12:09:13;;;;;;;;;;;;;;;15.98;65.09;101875.72;5016351;28;103936;-51
2021/10/14 12:11:39;;;;;;;;;;;;;;;15.98;65.40;101872.97;5014452;28;102068;-51
2021/10/14 12:14:05;;;;;;;;;;;;;;;15.98;65.13;101881.22;5014207;28;102535;-51
2021/10/14 12:16:32;;;;;;;;;;;;;;;15.98;65.16;101885.88;5014656;28;102325;-51
2021/10/14 12:19:15;;;;;;;;;;;;;;;15.98;65.12;101881.22;5016031;28;103968;-51
2021/10/14 12:21:45;;;;;;;;;;;;;;;15.97;65.38;101882.28;5013906;28;102322;-51
2021/10/14 12:24:13;;;;;;;;;;;;;;;15.97;65.11;101887.78;5015185;28;102335;-51
2021/10/14 12:26:41;;;;;;;;;;;;;;;15.97;65.50;101893.28;5010470;28;102202;-51
2021/10/14 12:29:17;;;;;;;;;;;;;;;15.98;65.50;101889.44;5011600;28;103972;-51